sensor_id;sensor_type;location;lat;lon;timestamp;pressure;altitude;pressure_sealevel;temperature;humidity
12969;BME280;6549;53.128;8.182;2023-06-26T00:01:08;101065.41;;;21.39;100.00
12969;BME280;6549;53.128;8.182;2023-06-26T00:04:09;101060.09;;;21.32;100.00
12969;BME280;6549;53.128;8.182;2023-06-26T00:07:14;101063.78;;;21.29;100.00
12969;BME280;6549;53.128;8.182;2023-06-26T00:10:14;101063.44;;;21.27;100.00
12969;BME280;6549;53.128;8.182;2023-06-26T00:13:15;101059.22;;;21.22;100.00
12969;BME280;6549;53.128;8.182;2023-06-26T00:16:15;101059.34;;;21.19;100.00
12969;BME280;6549;53.128;8.182;2023-06-26T00:19:15;101048.34;;;21.12;100.00
12969;BME280;6549;53.128;8.182;2023-06-26T00:22:16;101048.34;;;21.12;100.00
12969;BME280;6549;53.128;8.182;2023-06-26T00:25:16;101047.16;;;21.13;100.00
12969;BME280;6549;53.128;8.182;2023-06-26T00:28:16;101036.88;;;21.10;100.00
12969;BME280;6549;53.128;8.182;2023-06-26T00:31:17;101040.88;;;21.08;100.00
12969;BME280;6549;53.128;8.182;2023-06-26T00:34:17;101033.19;;;21.00;100.00
12969;BME280;6549;53.128;8.182;2023-06-26T00:37:17;101036.44;;;20.98;100.00
12969;BME280;6549;53.128;8.182;2023-06-26T00:40:18;101031.53;;;20.90;100.00
12969;BME280;6549;53.128;8.182;2023-06-26T00:43:18;101028.84;;;20.86;100.00
12969;BME280;6549;53.128;8.182;2023-06-26T00:46:18;101025.16;;;20.89;100.00
12969;BME280;6549;53.128;8.182;2023-06-26T00:49:19;101023.63;;;20.88;100.00
12969;BME280;6549;53.128;8.182;2023-06-26T00:52:20;101023.28;;;20.86;100.00
12969;BME280;6549;53.128;8.182;2023-06-26T00:55:20;101019.38;;;20.84;100.00
12969;BME280;6549;53.128;8.182;2023-06-26T00:58:23;101018.59;;;20.83;100.00
12969;BME280;6549;53.128;8.182;2023-06-26T01:01:24;101005.97;;;20.79;100.00
12969;BME280;6549;53.128;8.182;2023-06-26T01:04:26;101008.31;;;20.80;100.00
12969;BME280;6549;53.128;8.182;2023-06-26T01:07:27;101007.56;;;20.80;100.00
12969;BME280;6549;53.128;8.182;2023-06-26T01:10:28;100997.91;;;20.81;100.00
12969;BME280;6549;53.128;8.182;2023-06-26T01:13:29;101001.97;;;20.80;100.00
12969;BME280;6549;53.128;8.182;2023-06-26T01:16:30;100996.25;;;20.83;100.00
12969;BME280;6549;53.128;8.182;2023-06-26T01:19:31;100985.88;;;20.84;100.00
12969;BME280;6549;53.128;8.182;2023-06-26T01:22:45;100981.28;;;20.77;100.00
12969;BME280;6549;53.128;8.182;2023-06-26T01:26:09;100985.44;;;20.73;100.00
12969;BME280;6549;53.128;8.182;2023-06-26T01:29:12;100974.38;;;20.69;100.00
12969;BME280;6549;53.128;8.182;2023-06-26T01:32:15;100978.41;;;20.68;100.00
12969;BME280;6549;53.128;8.182;2023-06-26T01:35:15;100963.66;;;20.68;100.00
12969;BME280;6549;53.128;8.182;2023-06-26T01:38:18;100964.13;;;20.66;100.00
12969;BME280;6549;53.128;8.182;2023-06-26T01:41:19;100963.91;;;20.60;100.00
12969;BME280;6549;53.128;8.182;2023-06-26T01:44:28;100964.47;;;20.55;100.00
12969;BME280;6549;53.128;8.182;2023-06-26T01:47:29;100965.38;;;20.52;100.00
12969;BME280;6549;53.128;8.182;2023-06-26T01:50:34;100948.75;;;20.49;100.00
12969;BME280;6549;53.128;8.182;2023-06-26T01:53:41;100952.63;;;20.51;100.00
12969;BME280;6549;53.128;8.182;2023-06-26T01:56:42;100946.25;;;20.51;100.00
12969;BME280;6549;53.128;8.182;2023-06-26T01:59:46;100942.25;;;20.52;100.00
12969;BME280;6549;53.128;8.182;2023-06-26T02:02:47;100933.22;;;20.48;100.00
12969;BME280;6549;53.128;8.182;2023-06-26T02:05:47;100936.13;;;20.44;100.00
12969;BME280;6549;53.128;8.182;2023-06-26T02:08:47;100936.34;;;20.37;100.00
12969;BME280;6549;53.128;8.182;2023-06-26T02:11:48;100928.53;;;20.32;100.00
12969;BME280;6549;53.128;8.182;2023-06-26T02:14:48;100927.75;;;20.32;100.00
12969;BME280;6549;53.128;8.182;2023-06-26T02:17:51;100919.84;;;20.30;100.00
12969;BME280;6549;53.128;8.182;2023-06-26T02:20:51;100919.13;;;20.26;100.00
12969;BME280;6549;53.128;8.182;2023-06-26T02:23:51;100913.66;;;20.23;100.00
12969;BME280;6549;53.128;8.182;2023-06-26T02:26:52;100911.09;;;20.15;100.00
12969;BME280;6549;53.128;8.182;2023-06-26T02:29:52;100909.22;;;20.12;100.00
12969;BME280;6549;53.128;8.182;2023-06-26T02:32:53;100907.75;;;20.08;100.00
12969;BME280;6549;53.128;8.182;2023-06-26T02:35:53;100900.72;;;20.03;100.00
12969;BME280;6549;53.128;8.182;2023-06-26T02:38:53;100903.19;;;20.01;100.00
12969;BME280;6549;53.128;8.182;2023-06-26T02:41:54;100905.28;;;19.97;100.00
12969;BME280;6549;53.128;8.182;2023-06-26T02:44:54;100901.06;;;19.93;100.00
12969;BME280;6549;53.128;8.182;2023-06-26T02:47:54;100891.13;;;19.92;100.00
12969;BME280;6549;53.128;8.182;2023-06-26T02:50:55;100890.38;;;19.91;100.00
12969;BME280;6549;53.128;8.182;2023-06-26T02:53:55;100899.59;;;19.88;100.00
12969;BME280;6549;53.128;8.182;2023-06-26T02:56:55;100892.38;;;19.91;100.00
12969;BME280;6549;53.128;8.182;2023-06-26T02:59:56;100891.91;;;19.92;100.00
12969;BME280;6549;53.128;8.182;2023-06-26T03:02:56;100887.66;;;19.88;100.00
12969;BME280;6549;53.128;8.182;2023-06-26T03:05:57;100882.63;;;19.83;100.00
12969;BME280;6549;53.128;8.182;2023-06-26T03:08:57;100883.88;;;19.82;100.00
12969;BME280;6549;53.128;8.182;2023-06-26T03:11:57;100888.22;;;19.83;100.00
12969;BME280;6549;53.128;8.182;2023-06-26T03:14:58;100879.84;;;19.83;100.00
12969;BME280;6549;53.128;8.182;2023-06-26T03:17:58;100879.75;;;19.86;100.00
12969;BME280;6549;53.128;8.182;2023-06-26T03:20:59;100875.72;;;19.87;100.00
12969;BME280;6549;53.128;8.182;2023-06-26T03:23:59;100877.28;;;19.88;100.00
12969;BME280;6549;53.128;8.182;2023-06-26T03:27:00;100864.00;;;19.92;100.00
12969;BME280;6549;53.128;8.182;2023-06-26T03:30:00;100875.84;;;19.96;100.00
12969;BME280;6549;53.128;8.182;2023-06-26T03:33:01;100871.81;;;19.97;100.00
12969;BME280;6549;53.128;8.182;2023-06-26T03:36:01;100868.25;;;19.97;100.00
12969;BME280;6549;53.128;8.182;2023-06-26T03:39:01;100866.13;;;20.01;100.00
12969;BME280;6549;53.128;8.182;2023-06-26T03:42:05;100864.47;;;20.03;100.00
12969;BME280;6549;53.128;8.182;2023-06-26T03:45:06;100862.47;;;20.04;100.00
12969;BME280;6549;53.128;8.182;2023-06-26T03:48:06;100866.78;;;20.05;100.00
12969;BME280;6549;53.128;8.182;2023-06-26T03:51:08;100861.44;;;20.10;100.00
12969;BME280;6549;53.128;8.182;2023-06-26T03:54:08;100859.31;;;20.14;100.00
12969;BME280;6549;53.128;8.182;2023-06-26T03:57:08;100858.09;;;20.15;100.00
12969;BME280;6549;53.128;8.182;2023-06-26T04:00:09;100855.75;;;20.14;100.00
12969;BME280;6549;53.128;8.182;2023-06-26T04:03:11;100852.38;;;20.19;100.00
12969;BME280;6549;53.128;8.182;2023-06-26T04:06:11;100848.13;;;20.27;100.00
12969;BME280;6549;53.128;8.182;2023-06-26T04:09:12;100849.50;;;20.35;100.00
12969;BME280;6549;53.128;8.182;2023-06-26T04:12:12;100850.47;;;20.41;100.00
12969;BME280;6549;53.128;8.182;2023-06-26T04:15:12;100857.28;;;20.53;100.00
12969;BME280;6549;53.128;8.182;2023-06-26T04:18:12;100851.44;;;20.60;100.00
12969;BME280;6549;53.128;8.182;2023-06-26T04:21:13;100838.47;;;20.66;100.00
12969;BME280;6549;53.128;8.182;2023-06-26T04:24:13;100842.88;;;20.76;100.00
12969;BME280;6549;53.128;8.182;2023-06-26T04:27:14;100834.13;;;20.87;100.00
12969;BME280;6549;53.128;8.182;2023-06-26T04:30:14;100825.31;;;20.88;100.00
12969;BME280;6549;53.128;8.182;2023-06-26T04:33:15;100836.78;;;20.90;100.00
12969;BME280;6549;53.128;8.182;2023-06-26T04:36:15;100841.13;;;20.91;100.00
12969;BME280;6549;53.128;8.182;2023-06-26T04:39:16;100833.69;;;20.88;100.00
12969;BME280;6549;53.128;8.182;2023-06-26T04:42:16;100832.13;;;20.87;100.00
12969;BME280;6549;53.128;8.182;2023-06-26T04:45:17;100828.41;;;20.90;100.00
12969;BME280;6549;53.128;8.182;2023-06-26T04:48:17;100820.22;;;20.96;100.00
12969;BME280;6549;53.128;8.182;2023-06-26T04:51:17;100820.09;;;20.99;100.00
12969;BME280;6549;53.128;8.182;2023-06-26T04:54:21;100833.88;;;21.16;100.00
12969;BME280;6549;53.128;8.182;2023-06-26T04:57:21;100832.13;;;21.31;100.00
12969;BME280;6549;53.128;8.182;2023-06-26T05:00:21;100829.19;;;21.34;100.00
12969;BME280;6549;53.128;8.182;2023-06-26T05:03:22;100826.13;;;21.41;100.00
12969;BME280;6549;53.128;8.182;2023-06-26T05:06:23;100826.94;;;21.51;100.00
12969;BME280;6549;53.128;8.182;2023-06-26T05:09:23;100826.84;;;21.64;100.00
12969;BME280;6549;53.128;8.182;2023-06-26T05:12:24;100831.09;;;21.77;100.00
12969;BME280;6549;53.128;8.182;2023-06-26T05:15:24;100837.53;;;21.96;100.00
12969;BME280;6549;53.128;8.182;2023-06-26T05:18:24;100831.41;;;22.19;100.00
12969;BME280;6549;53.128;8.182;2023-06-26T05:21:25;100830.66;;;22.37;100.00
12969;BME280;6549;53.128;8.182;2023-06-26T05:24:25;100819.47;;;22.55;100.00
12969;BME280;6549;53.128;8.182;2023-06-26T05:27:26;100819.94;;;22.63;100.00
12969;BME280;6549;53.128;8.182;2023-06-26T05:30:27;100815.59;;;22.80;100.00
12969;BME280;6549;53.128;8.182;2023-06-26T05:33:28;100813.56;;;22.99;100.00
12969;BME280;6549;53.128;8.182;2023-06-26T05:36:29;100827.53;;;23.17;100.00
12969;BME280;6549;53.128;8.182;2023-06-26T05:39:31;100815.19;;;23.33;100.00
12969;BME280;6549;53.128;8.182;2023-06-26T05:42:32;100814.09;;;23.48;100.00
12969;BME280;6549;53.128;8.182;2023-06-26T05:45:33;100820.84;;;23.75;100.00
12969;BME280;6549;53.128;8.182;2023-06-26T05:48:33;100807.13;;;24.00;100.00
12969;BME280;6549;53.128;8.182;2023-06-26T05:51:34;100803.19;;;24.16;100.00
12969;BME280;6549;53.128;8.182;2023-06-26T05:54:34;100808.94;;;24.36;100.00
12969;BME280;6549;53.128;8.182;2023-06-26T05:57:36;100813.53;;;24.48;100.00
12969;BME280;6549;53.128;8.182;2023-06-26T06:00:39;100817.44;;;24.66;100.00
12969;BME280;6549;53.128;8.182;2023-06-26T06:03:40;100831.50;;;24.89;100.00
12969;BME280;6549;53.128;8.182;2023-06-26T06:06:40;100838.56;;;25.14;100.00
12969;BME280;6549;53.128;8.182;2023-06-26T06:09:40;100834.22;;;25.42;100.00
12969;BME280;6549;53.128;8.182;2023-06-26T06:12:41;100829.06;;;25.41;100.00
12969;BME280;6549;53.128;8.182;2023-06-26T06:15:41;100828.91;;;25.30;100.00
12969;BME280;6549;53.128;8.182;2023-06-26T06:18:41;100822.19;;;24.98;100.00
12969;BME280;6549;53.128;8.182;2023-06-26T06:21:42;100822.91;;;24.84;100.00
12969;BME280;6549;53.128;8.182;2023-06-26T06:24:43;100833.81;;;24.91;100.00
12969;BME280;6549;53.128;8.182;2023-06-26T06:27:44;100839.16;;;25.03;100.00
12969;BME280;6549;53.128;8.182;2023-06-26T06:30:44;100838.66;;;25.05;100.00
12969;BME280;6549;53.128;8.182;2023-06-26T06:33:47;100821.59;;;25.23;100.00
12969;BME280;6549;53.128;8.182;2023-06-26T06:36:47;100838.78;;;25.69;100.00
12969;BME280;6549;53.128;8.182;2023-06-26T06:39:47;100842.72;;;25.92;100.00
12969;BME280;6549;53.128;8.182;2023-06-26T06:42:48;100849.34;;;25.74;100.00
12969;BME280;6549;53.128;8.182;2023-06-26T06:45:48;100850.72;;;25.79;100.00
12969;BME280;6549;53.128;8.182;2023-06-26T06:48:49;100865.72;;;25.90;100.00
12969;BME280;6549;53.128;8.182;2023-06-26T06:51:49;100876.84;;;26.14;100.00
12969;BME280;6549;53.128;8.182;2023-06-26T06:54:54;100874.25;;;25.96;100.00
12969;BME280;6549;53.128;8.182;2023-06-26T06:57:55;100879.28;;;25.57;100.00
12969;BME280;6549;53.128;8.182;2023-06-26T07:00:55;100889.81;;;25.33;100.00
12969;BME280;6549;53.128;8.182;2023-06-26T07:03:56;100888.53;;;25.19;100.00
12969;BME280;6549;53.128;8.182;2023-06-26T07:06:57;100892.31;;;25.16;100.00
12969;BME280;6549;53.128;8.182;2023-06-26T07:10:06;100886.97;;;25.18;100.00
12969;BME280;6549;53.128;8.182;2023-06-26T07:13:06;100905.81;;;25.27;100.00
12969;BME280;6549;53.128;8.182;2023-06-26T07:16:07;100900.75;;;25.16;100.00
12969;BME280;6549;53.128;8.182;2023-06-26T07:19:07;100914.06;;;24.92;100.00
12969;BME280;6549;53.128;8.182;2023-06-26T07:22:08;100926.97;;;24.75;100.00
12969;BME280;6549;53.128;8.182;2023-06-26T07:25:08;100943.25;;;24.47;100.00
12969;BME280;6549;53.128;8.182;2023-06-26T07:28:10;100946.66;;;24.18;100.00
12969;BME280;6549;53.128;8.182;2023-06-26T07:31:11;100954.28;;;23.76;100.00
12969;BME280;6549;53.128;8.182;2023-06-26T07:34:11;100950.25;;;23.40;100.00
12969;BME280;6549;53.128;8.182;2023-06-26T07:37:11;100947.91;;;23.11;100.00
12969;BME280;6549;53.128;8.182;2023-06-26T07:40:12;100984.97;;;22.79;100.00
12969;BME280;6549;53.128;8.182;2023-06-26T07:43:12;101035.88;;;22.47;100.00
12969;BME280;6549;53.128;8.182;2023-06-26T07:46:13;101020.84;;;22.01;100.00
12969;BME280;6549;53.128;8.182;2023-06-26T07:49:13;100999.53;;;21.72;100.00
12969;BME280;6549;53.128;8.182;2023-06-26T07:52:15;101009.38;;;21.42;100.00
12969;BME280;6549;53.128;8.182;2023-06-26T07:55:15;101013.16;;;21.27;100.00
12969;BME280;6549;53.128;8.182;2023-06-26T07:58:15;101010.25;;;21.18;100.00
12969;BME280;6549;53.128;8.182;2023-06-26T08:01:16;101017.63;;;21.12;100.00
12969;BME280;6549;53.128;8.182;2023-06-26T08:04:18;101019.31;;;21.09;100.00
12969;BME280;6549;53.128;8.182;2023-06-26T08:07:18;101009.25;;;21.12;100.00
12969;BME280;6549;53.128;8.182;2023-06-26T08:10:19;101008.56;;;21.20;100.00
12969;BME280;6549;53.128;8.182;2023-06-26T08:13:19;101008.22;;;21.31;100.00
12969;BME280;6549;53.128;8.182;2023-06-26T08:16:19;101005.63;;;21.36;100.00
12969;BME280;6549;53.128;8.182;2023-06-26T08:19:20;101010.72;;;21.72;100.00
12969;BME280;6549;53.128;8.182;2023-06-26T08:22:20;101014.81;;;22.02;100.00
12969;BME280;6549;53.128;8.182;2023-06-26T08:25:20;101027.22;;;21.79;100.00
12969;BME280;6549;53.128;8.182;2023-06-26T08:28:21;101036.19;;;21.74;100.00
12969;BME280;6549;53.128;8.182;2023-06-26T08:31:21;101044.28;;;21.94;100.00
12969;BME280;6549;53.128;8.182;2023-06-26T08:34:21;101054.72;;;22.24;100.00
12969;BME280;6549;53.128;8.182;2023-06-26T08:37:22;101061.44;;;22.67;100.00
12969;BME280;6549;53.128;8.182;2023-06-26T08:40:23;101061.75;;;23.00;100.00
12969;BME280;6549;53.128;8.182;2023-06-26T08:43:23;101054.94;;;23.19;100.00
12969;BME280;6549;53.128;8.182;2023-06-26T08:46:24;101059.97;;;23.51;100.00
12969;BME280;6549;53.128;8.182;2023-06-26T08:49:29;101069.31;;;23.66;100.00
12969;BME280;6549;53.128;8.182;2023-06-26T08:52:42;101073.66;;;23.86;100.00
12969;BME280;6549;53.128;8.182;2023-06-26T08:55:43;101066.78;;;24.05;100.00
12969;BME280;6549;53.128;8.182;2023-06-26T08:58:44;101070.03;;;24.12;100.00
12969;BME280;6549;53.128;8.182;2023-06-26T09:01:45;101074.75;;;24.15;100.00
12969;BME280;6549;53.128;8.182;2023-06-26T09:04:47;101080.16;;;24.37;100.00
12969;BME280;6549;53.128;8.182;2023-06-26T09:07:48;101077.78;;;24.45;100.00
12969;BME280;6549;53.128;8.182;2023-06-26T09:10:48;101088.44;;;24.74;100.00
12969;BME280;6549;53.128;8.182;2023-06-26T09:13:48;101088.38;;;24.83;100.00
12969;BME280;6549;53.128;8.182;2023-06-26T09:16:49;101104.72;;;24.60;100.00
12969;BME280;6549;53.128;8.182;2023-06-26T09:19:49;101119.56;;;25.03;100.00
12969;BME280;6549;53.128;8.182;2023-06-26T09:22:50;101119.50;;;25.12;100.00
12969;BME280;6549;53.128;8.182;2023-06-26T09:25:51;101117.66;;;25.09;100.00
12969;BME280;6549;53.128;8.182;2023-06-26T09:28:51;101123.00;;;25.31;100.00
12969;BME280;6549;53.128;8.182;2023-06-26T09:31:52;101130.53;;;25.48;100.00
12969;BME280;6549;53.128;8.182;2023-06-26T09:34:53;101138.06;;;25.42;100.00
12969;BME280;6549;53.128;8.182;2023-06-26T09:37:54;101136.78;;;25.20;100.00
12969;BME280;6549;53.128;8.182;2023-06-26T09:40:54;101132.44;;;25.42;100.00
12969;BME280;6549;53.128;8.182;2023-06-26T09:43:57;101146.28;;;25.31;100.00
12969;BME280;6549;53.128;8.182;2023-06-26T09:47:04;101151.16;;;24.89;100.00
12969;BME280;6549;53.128;8.182;2023-06-26T09:50:04;101152.16;;;25.10;100.00
12969;BME280;6549;53.128;8.182;2023-06-26T09:53:08;101163.91;;;25.32;100.00
12969;BME280;6549;53.128;8.182;2023-06-26T09:56:17;101160.34;;;25.31;100.00
12969;BME280;6549;53.128;8.182;2023-06-26T09:59:18;101175.09;;;25.17;100.00
12969;BME280;6549;53.128;8.182;2023-06-26T10:02:18;101169.84;;;25.34;100.00
12969;BME280;6549;53.128;8.182;2023-06-26T10:05:19;101161.44;;;25.58;100.00
12969;BME280;6549;53.128;8.182;2023-06-26T10:08:20;101173.66;;;25.55;100.00
12969;BME280;6549;53.128;8.182;2023-06-26T10:11:21;101178.66;;;25.50;100.00
12969;BME280;6549;53.128;8.182;2023-06-26T10:14:26;101181.00;;;25.52;100.00
12969;BME280;6549;53.128;8.182;2023-06-26T10:17:34;101187.53;;;25.82;100.00
12969;BME280;6549;53.128;8.182;2023-06-26T10:20:36;101178.56;;;25.12;100.00
12969;BME280;6549;53.128;8.182;2023-06-26T10:23:39;101196.25;;;25.03;100.00
12969;BME280;6549;53.128;8.182;2023-06-26T10:26:44;101185.69;;;24.80;100.00
12969;BME280;6549;53.128;8.182;2023-06-26T10:29:49;101198.25;;;25.12;100.00
12969;BME280;6549;53.128;8.182;2023-06-26T10:32:51;101199.69;;;25.64;99.30
12969;BME280;6549;53.128;8.182;2023-06-26T10:35:51;101199.88;;;25.84;99.45
12969;BME280;6549;53.128;8.182;2023-06-26T10:38:55;101211.97;;;25.76;90.01
12969;BME280;6549;53.128;8.182;2023-06-26T10:42:08;101212.78;;;25.43;94.89
12969;BME280;6549;53.128;8.182;2023-06-26T10:45:14;101212.94;;;25.97;89.71
12969;BME280;6549;53.128;8.182;2023-06-26T10:48:15;101215.84;;;26.26;84.73
12969;BME280;6549;53.128;8.182;2023-06-26T10:51:15;101217.03;;;26.10;80.86
12969;BME280;6549;53.128;8.182;2023-06-26T10:54:17;101224.31;;;25.55;92.69
12969;BME280;6549;53.128;8.182;2023-06-26T10:57:23;101227.44;;;25.57;91.62
12969;BME280;6549;53.128;8.182;2023-06-26T11:00:24;101224.22;;;24.98;95.82
12969;BME280;6549;53.128;8.182;2023-06-26T11:03:24;101220.66;;;25.30;95.79
12969;BME280;6549;53.128;8.182;2023-06-26T11:06:25;101228.25;;;25.96;92.47
12969;BME280;6549;53.128;8.182;2023-06-26T11:09:25;101229.09;;;26.64;92.42
12969;BME280;6549;53.128;8.182;2023-06-26T11:12:38;101223.56;;;26.84;78.55
12969;BME280;6549;53.128;8.182;2023-06-26T11:15:42;101231.44;;;26.80;82.75
12969;BME280;6549;53.128;8.182;2023-06-26T11:18:45;101226.81;;;26.38;86.01
12969;BME280;6549;53.128;8.182;2023-06-26T11:21:46;101230.00;;;25.93;87.97
12969;BME280;6549;53.128;8.182;2023-06-26T11:24:46;101235.16;;;25.71;87.15
12969;BME280;6549;53.128;8.182;2023-06-26T11:27:47;101243.59;;;25.38;96.28
12969;BME280;6549;53.128;8.182;2023-06-26T11:30:47;101254.88;;;24.87;96.61
12969;BME280;6549;53.128;8.182;2023-06-26T11:33:48;101249.88;;;24.82;95.79
12969;BME280;6549;53.128;8.182;2023-06-26T11:36:48;101251.09;;;24.99;98.15
12969;BME280;6549;53.128;8.182;2023-06-26T11:39:49;101257.56;;;25.23;94.42
12969;BME280;6549;53.128;8.182;2023-06-26T11:42:49;101248.00;;;25.30;94.29
12969;BME280;6549;53.128;8.182;2023-06-26T11:45:50;101249.88;;;25.66;92.81
12969;BME280;6549;53.128;8.182;2023-06-26T11:48:50;101253.31;;;25.70;87.58
12969;BME280;6549;53.128;8.182;2023-06-26T11:51:51;101260.00;;;26.20;98.18
12969;BME280;6549;53.128;8.182;2023-06-26T11:54:51;101262.22;;;26.69;86.18
12969;BME280;6549;53.128;8.182;2023-06-26T11:57:55;101262.38;;;26.89;79.82
12969;BME280;6549;53.128;8.182;2023-06-26T12:00:55;101277.72;;;26.11;78.09
12969;BME280;6549;53.128;8.182;2023-06-26T12:03:59;101279.72;;;25.72;80.98
12969;BME280;6549;53.128;8.182;2023-06-26T12:07:02;101285.41;;;25.12;87.25
12969;BME280;6549;53.128;8.182;2023-06-26T12:10:05;101275.56;;;25.49;83.07
12969;BME280;6549;53.128;8.182;2023-06-26T12:13:07;101283.97;;;26.15;86.03
12969;BME280;6549;53.128;8.182;2023-06-26T12:16:07;101289.13;;;26.41;73.88
12969;BME280;6549;53.128;8.182;2023-06-26T12:19:08;101277.44;;;26.09;76.38
12969;BME280;6549;53.128;8.182;2023-06-26T12:22:09;101268.81;;;26.13;75.25
12969;BME280;6549;53.128;8.182;2023-06-26T12:25:10;101271.06;;;26.47;77.47
12969;BME280;6549;53.128;8.182;2023-06-26T12:28:18;101275.59;;;25.82;75.12
12969;BME280;6549;53.128;8.182;2023-06-26T12:31:21;101288.78;;;25.34;76.80
12969;BME280;6549;53.128;8.182;2023-06-26T12:34:27;101285.00;;;25.37;75.96
12969;BME280;6549;53.128;8.182;2023-06-26T12:37:28;101284.38;;;25.42;78.42
12969;BME280;6549;53.128;8.182;2023-06-26T12:40:28;101276.78;;;25.67;76.16
12969;BME280;6549;53.128;8.182;2023-06-26T12:43:29;101282.41;;;25.25;76.06
12969;BME280;6549;53.128;8.182;2023-06-26T12:46:33;101290.91;;;25.58;77.45
12969;BME280;6549;53.128;8.182;2023-06-26T12:49:36;101284.03;;;25.82;73.65
12969;BME280;6549;53.128;8.182;2023-06-26T12:52:37;101281.88;;;25.77;74.03
12969;BME280;6549;53.128;8.182;2023-06-26T12:55:37;101288.69;;;25.85;74.89
12969;BME280;6549;53.128;8.182;2023-06-26T12:58:37;101293.19;;;25.26;70.20
12969;BME280;6549;53.128;8.182;2023-06-26T13:01:38;101290.47;;;24.99;72.59
12969;BME280;6549;53.128;8.182;2023-06-26T13:04:38;101290.63;;;24.95;69.18
12969;BME280;6549;53.128;8.182;2023-06-26T13:07:40;101286.03;;;25.16;69.55
12969;BME280;6549;53.128;8.182;2023-06-26T13:10:40;101294.47;;;25.16;70.17
12969;BME280;6549;53.128;8.182;2023-06-26T13:13:40;101300.25;;;25.13;73.02
12969;BME280;6549;53.128;8.182;2023-06-26T13:16:41;101297.66;;;24.91;71.30
12969;BME280;6549;53.128;8.182;2023-06-26T13:19:41;101289.78;;;25.22;74.08
12969;BME280;6549;53.128;8.182;2023-06-26T13:22:41;101295.44;;;25.04;75.81
12969;BME280;6549;53.128;8.182;2023-06-26T13:25:42;101304.19;;;24.79;76.92
12969;BME280;6549;53.128;8.182;2023-06-26T13:28:42;101299.53;;;24.57;76.50
12969;BME280;6549;53.128;8.182;2023-06-26T13:31:42;101301.72;;;24.44;81.09
12969;BME280;6549;53.128;8.182;2023-06-26T13:34:43;101307.47;;;24.23;80.76
12969;BME280;6549;53.128;8.182;2023-06-26T13:37:43;101311.16;;;24.01;89.37
12969;BME280;6549;53.128;8.182;2023-06-26T13:40:43;101315.28;;;23.69;93.69
12969;BME280;6549;53.128;8.182;2023-06-26T13:43:44;101317.13;;;23.63;95.31
12969;BME280;6549;53.128;8.182;2023-06-26T13:46:44;101325.75;;;23.78;94.05
12969;BME280;6549;53.128;8.182;2023-06-26T13:49:44;101333.66;;;23.61;95.27
12969;BME280;6549;53.128;8.182;2023-06-26T13:52:44;101326.84;;;23.71;97.17
12969;BME280;6549;53.128;8.182;2023-06-26T13:55:45;101321.16;;;23.53;98.01
12969;BME280;6549;53.128;8.182;2023-06-26T13:58:45;101317.63;;;23.71;93.30
12969;BME280;6549;53.128;8.182;2023-06-26T14:01:45;101325.31;;;23.80;96.70
12969;BME280;6549;53.128;8.182;2023-06-26T14:04:46;101316.84;;;23.70;94.42
12969;BME280;6549;53.128;8.182;2023-06-26T14:07:47;101320.25;;;23.65;91.39
12969;BME280;6549;53.128;8.182;2023-06-26T14:10:47;101319.47;;;23.34;92.60
12969;BME280;6549;53.128;8.182;2023-06-26T14:13:48;101337.53;;;23.33;94.90
12969;BME280;6549;53.128;8.182;2023-06-26T14:16:48;101335.72;;;23.39;92.83
12969;BME280;6549;53.128;8.182;2023-06-26T14:19:49;101338.13;;;23.28;96.94
12969;BME280;6549;53.128;8.182;2023-06-26T14:22:49;101335.72;;;23.39;93.08
12969;BME280;6549;53.128;8.182;2023-06-26T14:25:50;101341.63;;;23.41;100.00
12969;BME280;6549;53.128;8.182;2023-06-26T14:28:50;101342.41;;;23.42;97.69
12969;BME280;6549;53.128;8.182;2023-06-26T14:31:50;101349.09;;;23.35;100.00
12969;BME280;6549;53.128;8.182;2023-06-26T14:34:51;101357.22;;;23.42;98.03
12969;BME280;6549;53.128;8.182;2023-06-26T14:37:51;101354.34;;;23.33;96.13
12969;BME280;6549;53.128;8.182;2023-06-26T14:40:51;101352.97;;;23.07;97.73
12969;BME280;6549;53.128;8.182;2023-06-26T14:43:52;101349.00;;;22.73;97.97
12969;BME280;6549;53.128;8.182;2023-06-26T14:46:53;101352.22;;;22.72;99.83
12969;BME280;6549;53.128;8.182;2023-06-26T14:49:53;101358.56;;;23.07;98.51
12969;BME280;6549;53.128;8.182;2023-06-26T14:52:54;101364.00;;;23.01;87.21
12969;BME280;6549;53.128;8.182;2023-06-26T14:55:54;101362.50;;;23.09;80.86
12969;BME280;6549;53.128;8.182;2023-06-26T14:58:55;101359.78;;;23.06;84.89
12969;BME280;6549;53.128;8.182;2023-06-26T15:01:55;101359.28;;;23.20;87.69
12969;BME280;6549;53.128;8.182;2023-06-26T15:04:55;101364.16;;;23.28;85.63
12969;BME280;6549;53.128;8.182;2023-06-26T15:07:56;101358.53;;;23.50;80.58
12969;BME280;6549;53.128;8.182;2023-06-26T15:10:56;101362.69;;;23.67;80.30
12969;BME280;6549;53.128;8.182;2023-06-26T15:13:57;101361.13;;;23.66;77.86
12969;BME280;6549;53.128;8.182;2023-06-26T15:16:57;101364.66;;;23.58;82.08
12969;BME280;6549;53.128;8.182;2023-06-26T15:19:58;101365.53;;;23.46;80.36
12969;BME280;6549;53.128;8.182;2023-06-26T15:22:59;101367.38;;;23.18;82.50
12969;BME280;6549;53.128;8.182;2023-06-26T15:26:00;101374.91;;;23.30;82.46
12969;BME280;6549;53.128;8.182;2023-06-26T15:29:01;101376.94;;;23.29;87.91
12969;BME280;6549;53.128;8.182;2023-06-26T15:32:01;101380.53;;;23.30;84.89
12969;BME280;6549;53.128;8.182;2023-06-26T15:35:02;101379.50;;;23.37;81.79
12969;BME280;6549;53.128;8.182;2023-06-26T15:38:02;101377.72;;;23.52;78.36
12969;BME280;6549;53.128;8.182;2023-06-26T15:41:03;101386.19;;;23.61;77.69
12969;BME280;6549;53.128;8.182;2023-06-26T15:44:04;101380.72;;;23.36;80.42
12969;BME280;6549;53.128;8.182;2023-06-26T15:47:04;101379.63;;;23.11;82.02
12969;BME280;6549;53.128;8.182;2023-06-26T15:50:06;101380.53;;;22.87;87.75